Abraham Lincoln Capital Airport Airport (SPI)

 

Airport Diagram
Current Weather/Forecast (VFR Conditions)
METAR KSPI 241452Z 28004KT 10SM CLR 18/12 A2996 RMK AO2 SLP143 60000 T01830122 50000
TAF KSPI 241120Z 2412/2512 17005KT P6SM SCT050 TEMPO 2412/2413 BKN050 FM241400 21006KT P6SM SCT060 SCT200 FM241700 25008KT P6SM FEW060 SCT200 FM242100 27009KT P6SM SCT200 FM250100 27006KT P6SM BKN200 FM250600 28007KT P6SM BKN120

All Charts
General
Chart Name Download
AIRPORT DIAGRAM
TAKEOFF MINIMUMS
ALTERNATE MINIMUMS
RADAR MINIMUMS
HOT SPOT

Approaches
Chart Name Download
ILS OR LOC RWY 04
ILS OR LOC RWY 22
ILS OR LOC RWY 31
RNAV (GPS) RWY 04
RNAV (GPS) RWY 13
RNAV (GPS) RWY 22
RNAV (GPS) RWY 31
VOR/DME RWY 13
VOR/DME RWY 22
VOR/DME RWY 31
VOR RWY 04